Terminal Aerodrome Forecast
Issued by NWS

Current Version | Previous Version | Text Only | Print | Product List | Glossary On
Versions: 1 2 3 4 5 6 7 8 9 10 11 12 13 14 15 16 17
000
FTUS45 KVEF 271700
TAFVGT
TAF
KVGT 271720Z 2718/2818 15006KT P6SM SCT010 OVC020
      TEMPO 2718/2720 OVC010
     FM272000 17009KT P6SM SCT025 BKN040
     FM280300 33005KT P6SM SCT040 SCT250=

USA.gov is the U.S. government's official web portal to all federal, state and local government web resources and services.